Time;durP1;ratioP1;P1;durP2;ratioP2;P2;SDS_P1;SDS_P2;PMS_P1;PMS_P2;Temp;Humidity;BMP_temperature;BMP_pressure;BME280_temperature;BME280_humidity;BME280_pressure;Samples;Min_cycle;Max_cycle;Signal;HPM_P1;HPM_P2
2021/09/04 05:01:48;;;;;;;22.92;4.20;;;;;;;;;;5300338;23;20097;-83
2021/09/04 05:04:14;;;;;;;15.82;4.18;;;;;;;;;;4852730;29;20033;-83
2021/09/04 05:06:39;;;;;;;27.60;3.85;;;;;;;;;;4819821;29;20124;-83
2021/09/04 05:09:04;;;;;;;12.35;3.63;;;;;;;;;;4808751;29;20106;-84
2021/09/04 05:11:30;;;;;;;15.13;3.28;;;;;;;;;;4807792;29;20034;-83
2021/09/04 05:13:55;;;;;;;13.38;3.78;;;;;;;;;;4826814;23;20034;-85
2021/09/04 05:16:20;;;;;;;20.42;3.03;;;;;;;;;;4859823;29;20048;-83
2021/09/04 05:18:46;;;;;;;15.37;3.20;;;;;;;;;;4838507;29;20089;-83
2021/09/04 05:21:11;;;;;;;10.83;2.67;;;;;;;;;;4807826;29;20026;-83
2021/09/04 05:23:36;;;;;;;9.53;3.10;;;;;;;;;;4824785;29;20550;-83
2021/09/04 05:26:02;;;;;;;14.43;2.57;;;;;;;;;;4826433;29;20033;-83
2021/09/04 05:28:27;;;;;;;12.30;2.87;;;;;;;;;;4811823;29;20032;-83
2021/09/04 05:30:53;;;;;;;5.90;2.40;;;;;;;;;;4811404;29;20577;-83
2021/09/04 05:33:18;;;;;;;6.50;2.27;;;;;;;;;;4811168;29;20487;-83
2021/09/04 05:35:44;;;;;;;4.87;2.10;;;;;;;;;;4811635;29;20034;-83
2021/09/04 05:38:09;;;;;;;6.17;2.27;;;;;;;;;;4810917;29;20055;-84
2021/09/04 05:40:35;;;;;;;8.00;2.30;;;;;;;;;;4811328;29;20493;-83
2021/09/04 05:43:00;;;;;;;4.27;2.03;;;;;;;;;;4810672;29;20033;-83
2021/09/04 05:45:26;;;;;;;5.20;2.27;;;;;;;;;;4811227;29;20032;-84
2021/09/04 05:47:51;;;;;;;6.13;2.20;;;;;;;;;;4811317;29;20045;-83
2021/09/04 05:50:17;;;;;;;5.60;2.30;;;;;;;;;;4810948;29;20285;-83
2021/09/04 05:52:42;;;;;;;4.67;2.07;;;;;;;;;;4810420;29;20030;-84
2021/09/04 05:55:08;;;;;;;5.17;2.10;;;;;;;;;;4811376;29;20147;-84
2021/09/04 05:57:33;;;;;;;4.50;2.43;;;;;;;;;;4810773;29;20064;-83
2021/09/04 05:59:58;;;;;;;4.97;2.23;;;;;;;;;;4825938;29;20097;-84
2021/09/04 06:02:24;;;;;;;5.23;2.60;;;;;;;;;;4810609;29;20114;-83
2021/09/04 06:04:49;;;;;;;3.60;2.23;;;;;;;;;;4811063;29;20293;-84
2021/09/04 06:07:14;;;;;;;5.57;2.47;;;;;;;;;;4810754;29;20038;-84
2021/09/04 06:09:40;;;;;;;5.67;2.93;;;;;;;;;;4825921;29;20030;-84
2021/09/04 06:12:05;;;;;;;4.07;2.00;;;;;;;;;;4825953;29;20036;-84
2021/09/04 06:14:31;;;;;;;5.80;2.90;;;;;;;;;;4810673;29;20094;-84
2021/09/04 06:16:56;;;;;;;8.90;2.80;;;;;;;;;;4810874;29;20133;-84
2021/09/04 06:19:22;;;;;;;6.03;2.60;;;;;;;;;;4825803;29;20414;-84
2021/09/04 06:21:47;;;;;;;7.73;3.17;;;;;;;;;;4810634;29;20026;-84
2021/09/04 06:24:13;;;;;;;8.23;3.03;;;;;;;;;;4810315;29;20065;-84
2021/09/04 06:26:38;;;;;;;5.90;3.23;;;;;;;;;;4810843;29;20384;-84
2021/09/04 06:29:03;;;;;;;7.77;3.43;;;;;;;;;;4810593;29;20034;-84
2021/09/04 06:31:29;;;;;;;5.37;2.93;;;;;;;;;;4825509;29;20034;-84
2021/09/04 06:33:54;;;;;;;6.83;2.90;;;;;;;;;;4810189;29;20049;-84
2021/09/04 06:36:19;;;;;;;6.50;3.17;;;;;;;;;;4809658;29;20033;-85
2021/09/04 06:38:45;;;;;;;6.53;3.37;;;;;;;;;;4810232;29;20056;-85
2021/09/04 06:41:10;;;;;;;5.90;3.03;;;;;;;;;;4810001;29;20094;-85
2021/09/04 06:43:37;;;;;;;4.80;2.93;;;;;;;;;;4825439;29;20034;-85
2021/09/04 06:46:02;;;;;;;6.55;2.97;;;;;;;;;;4810014;29;20041;-85
2021/09/04 06:48:27;;;;;;;5.77;2.80;;;;;;;;;;4810143;29;20033;-85
2021/09/04 06:50:53;;;;;;;5.10;2.83;;;;;;;;;;4825171;29;20514;-85
2021/09/04 06:53:18;;;;;;;5.28;3.00;;;;;;;;;;4809793;29;20121;-85
2021/09/04 06:55:44;;;;;;;5.07;3.08;;;;;;;;;;4809892;29;20034;-85
2021/09/04 06:58:09;;;;;;;;;;;;;;;;;;4825798;29;20510;-85
2021/09/04 07:00:34;;;;;;;6.60;3.20;;;;;;;;;;4824990;29;19916;-86
2021/09/04 07:03:00;;;;;;;5.72;3.08;;;;;;;;;;4810033;29;20082;-86
2021/09/04 07:05:25;;;;;;;4.32;2.90;;;;;;;;;;4810019;29;20026;-86
2021/09/04 07:07:50;;;;;;;5.75;3.08;;;;;;;;;;4824920;29;20022;-86
2021/09/04 07:10:16;;;;;;;6.22;2.95;;;;;;;;;;4809833;29;20548;-86
2021/09/04 07:12:41;;;;;;;4.50;2.95;;;;;;;;;;4809738;29;20158;-86
2021/09/04 07:15:07;;;;;;;6.20;3.00;;;;;;;;;;4809435;29;20045;-86
2021/09/04 07:17:32;;;;;;;5.10;3.20;;;;;;;;;;4824804;29;20171;-86
2021/09/04 07:19:58;;;;;;;5.13;2.80;;;;;;;;;;4824876;29;20538;-86
2021/09/04 07:22:23;;;;;;;4.68;2.63;;;;;;;;;;4809567;29;20033;-86
2021/09/04 07:24:48;;;;;;;5.75;2.92;;;;;;;;;;4809504;29;20392;-87
2021/09/04 07:27:14;;;;;;;4.35;2.78;;;;;;;;;;4809522;29;20025;-86
2021/09/04 07:29:39;;;;;;;5.13;2.92;;;;;;;;;;4809634;29;20034;-87
2021/09/04 07:32:05;;;;;;;6.00;2.90;;;;;;;;;;4824721;29;20022;-86
2021/09/04 07:34:30;;;;;;;6.45;2.72;;;;;;;;;;4824542;29;20034;-87
2021/09/04 07:36:55;;;;;;;6.10;3.10;;;;;;;;;;4809149;29;20026;-87
2021/09/04 07:39:21;;;;;;;4.75;2.72;;;;;;;;;;4809040;29;20038;-87
2021/09/04 07:41:46;;;;;;;5.25;3.10;;;;;;;;;;4824159;29;20452;-86
2021/09/04 07:44:12;;;;;;;7.50;3.25;;;;;;;;;;4809100;29;20021;-87
2021/09/04 07:46:37;;;;;;;4.80;2.92;;;;;;;;;;4808769;29;20041;-87
2021/09/04 07:49:02;;;;;;;6.43;2.70;;;;;;;;;;4809321;29;20026;-87
2021/09/04 07:51:28;;;;;;;8.98;2.85;;;;;;;;;;4808653;29;20030;-87
2021/09/04 07:53:53;;;;;;;8.35;2.85;;;;;;;;;;4809421;29;20498;-87
2021/09/04 07:56:19;;;;;;;6.50;3.03;;;;;;;;;;4809153;29;20116;-87
2021/09/04 07:58:44;;;;;;;4.18;2.88;;;;;;;;;;4809071;29;20030;-87
2021/09/04 08:01:09;;;;;;;5.38;2.72;;;;;;;;;;4808693;29;20033;-87
2021/09/04 08:03:35;;;;;;;6.00;2.78;;;;;;;;;;4824412;29;20034;-85
2021/09/04 08:06:00;;;;;;;5.60;2.47;;;;;;;;;;4809086;29;20116;-85
2021/09/04 08:08:25;;;;;;;4.93;2.38;;;;;;;;;;4809088;29;20128;-85
2021/09/04 08:10:51;;;;;;;4.97;2.60;;;;;;;;;;4809053;29;20508;-85
2021/09/04 08:13:16;;;;;;;4.53;2.50;;;;;;;;;;4808782;29;20030;-84
2021/09/04 08:15:42;;;;;;;4.20;2.40;;;;;;;;;;4808625;29;20175;-85
2021/09/04 08:18:07;;;;;;;5.72;2.90;;;;;;;;;;4808806;29;20118;-85
2021/09/04 08:20:32;;;;;;;5.10;2.45;;;;;;;;;;4823883;29;20063;-84
2021/09/04 08:22:58;;;;;;;4.95;2.60;;;;;;;;;;4808572;29;20030;-84
2021/09/04 08:25:24;;;;;;;5.88;2.40;;;;;;;;;;4824089;29;20105;-85
2021/09/04 08:27:49;;;;;;;3.80;2.60;;;;;;;;;;4823784;29;20030;-85
2021/09/04 08:30:15;;;;;;;5.63;2.30;;;;;;;;;;4808621;29;20546;-85
2021/09/04 08:32:40;;;;;;;3.65;2.50;;;;;;;;;;4808390;29;20034;-84
2021/09/04 08:35:05;;;;;;;4.13;2.40;;;;;;;;;;4808579;29;20029;-84
2021/09/04 08:37:31;;;;;;;3.65;2.58;;;;;;;;;;4823818;29;20456;-84
2021/09/04 08:39:56;;;;;;;4.60;2.30;;;;;;;;;;4808388;29;20034;-84
2021/09/04 08:42:22;;;;;;;4.85;2.80;;;;;;;;;;4808334;29;20184;-84
2021/09/04 08:44:47;;;;;;;4.03;2.35;;;;;;;;;;4808583;29;20086;-84
2021/09/04 08:47:12;;;;;;;4.45;2.72;;;;;;;;;;4808424;29;20030;-84
2021/09/04 08:49:38;;;;;;;4.15;2.50;;;;;;;;;;4808305;29;20550;-84
2021/09/04 08:52:06;;;;;;;4.65;2.47;;;;;;;;;;4824176;29;20033;-84
2021/09/04 08:54:32;;;;;;;4.30;2.40;;;;;;;;;;4808284;29;20053;-84
2021/09/04 08:56:57;;;;;;;3.67;2.40;;;;;;;;;;4808469;29;20033;-84
2021/09/04 08:59:22;;;;;;;4.35;2.20;;;;;;;;;;4811110;29;20036;-84
2021/09/04 09:01:48;;;;;;;6.50;2.13;;;;;;;;;;4811934;29;20395;-84
2021/09/04 09:04:18;;;;;;;3.15;2.03;;;;;;;;;;4827046;29;20109;-84
2021/09/04 09:06:44;;;;;;;3.20;1.98;;;;;;;;;;4827348;29;20041;-84
2021/09/04 09:09:23;;;;;;;3.55;2.25;;;;;;;;;;4811674;29;20402;-84
2021/09/04 09:11:53;;;;;;;3.10;2.05;;;;;;;;;;4827179;29;20022;-84
2021/09/04 09:14:19;;;;;;;3.67;2.30;;;;;;;;;;4811289;29;20037;-84
2021/09/04 09:16:54;;;;;;;3.78;2.20;;;;;;;;;;4811919;29;20068;-84
2021/09/04 09:19:22;;;;;;;3.85;2.15;;;;;;;;;;4811790;29;20030;-84
2021/09/04 09:21:47;;;;;;;3.45;2.58;;;;;;;;;;4811695;29;20026;-84
2021/09/04 09:24:19;;;;;;;6.53;2.63;;;;;;;;;;4811612;29;20036;-85
2021/09/04 09:26:58;;;;;;;3.45;2.40;;;;;;;;;;4811652;29;20026;-85
2021/09/04 09:29:24;;;;;;;5.75;2.47;;;;;;;;;;4811317;29;20554;-84
2021/09/04 09:31:49;;;;;;;4.10;2.20;;;;;;;;;;4826332;29;20037;-85
2021/09/04 09:34:15;;;;;;;3.38;2.03;;;;;;;;;;4811690;29;20033;-85
2021/09/04 09:36:54;;;;;;;3.45;2.17;;;;;;;;;;4826571;29;20505;-85
2021/09/04 09:39:24;;;;;;;6.85;2.63;;;;;;;;;;4826190;29;20037;-84
2021/09/04 09:41:49;;;;;;;3.33;2.10;;;;;;;;;;4811325;29;20041;-84
2021/09/04 09:44:25;;;;;;;3.95;2.38;;;;;;;;;;4811113;29;20034;-84
2021/09/04 09:47:00;;;;;;;4.88;2.30;;;;;;;;;;4811333;29;20120;-84
2021/09/04 09:49:55;;;;;;;;;;;;;;;;;;4810976;29;20487;-84
2021/09/04 09:52:20;;;;;;;3.30;2.25;;;;;;;;;;4833064;29;19912;-84
2021/09/04 09:54:46;;;;;;;4.88;2.63;;;;;;;;;;4810937;29;20483;-84
2021/09/04 09:57:11;;;;;;;3.95;2.00;;;;;;;;;;4811236;29;20197;-84
2021/09/04 09:59:43;;;;;;;13.30;3.30;;;;;;;;;;4811082;29;20041;-84
2021/09/04 10:02:10;;;;;;;3.28;2.20;;;;;;;;;;4825729;29;20033;-84
2021/09/04 10:04:37;;;;;;;3.53;1.98;;;;;;;;;;4810370;29;20033;-84
2021/09/04 10:07:03;;;;;;;3.50;2.13;;;;;;;;;;4825848;29;20030;-85
2021/09/04 10:09:29;;;;;;;3.55;2.15;;;;;;;;;;4809648;29;20022;-84
2021/09/04 10:11:54;;;;;;;3.13;2.00;;;;;;;;;;4810370;29;20399;-85
2021/09/04 10:14:20;;;;;;;3.95;2.25;;;;;;;;;;4810722;29;20053;-84
2021/09/04 10:16:46;;;;;;;4.85;2.15;;;;;;;;;;4810590;29;20129;-84
2021/09/04 10:19:15;;;;;;;4.35;2.60;;;;;;;;;;4810489;29;20064;-84
2021/09/04 10:21:40;;;;;;;3.97;2.40;;;;;;;;;;4825362;29;20109;-84
2021/09/04 10:24:07;;;;;;;4.43;2.50;;;;;;;;;;4810473;29;20125;-84
2021/09/04 10:26:34;;;;;;;4.63;2.58;;;;;;;;;;4810277;29;20081;-84
2021/09/04 10:29:05;;;;;;;4.25;2.35;;;;;;;;;;4810868;29;20030;-84
2021/09/04 10:31:40;;;;;;;5.10;2.80;;;;;;;;;;4825339;29;20034;-84
2021/09/04 10:34:16;;;;;;;6.15;2.50;;;;;;;;;;4825555;29;20511;-84
2021/09/04 10:37:01;;;;;;;4.15;2.40;;;;;;;;;;4810058;29;20089;-84
2021/09/04 10:39:48;;;;;;;4.88;2.50;;;;;;;;;;4810283;29;20036;-84
2021/09/04 10:42:15;;;;;;;4.40;2.50;;;;;;;;;;4841513;29;20534;-84
2021/09/04 10:44:41;;;;;;;4.93;2.50;;;;;;;;;;4825771;29;20034;-84
2021/09/04 10:47:08;;;;;;;;;;;;;;;;;;4810618;29;20090;-84
2021/09/04 10:49:40;;;;;;;5.30;2.83;;;;;;;;;;4825270;29;20293;-84
2021/09/04 10:52:06;;;;;;;5.40;2.45;;;;;;;;;;4809979;29;20278;-84
2021/09/04 10:54:53;;;;;;;6.22;2.40;;;;;;;;;;4810120;29;20477;-84
2021/09/04 10:57:19;;;;;;;5.78;2.60;;;;;;;;;;4825200;29;20186;-84
2021/09/04 10:59:57;;;;;;;7.55;2.40;;;;;;;;;;4810119;29;20507;-84
2021/09/04 11:02:22;;;;;;;4.55;2.38;;;;;;;;;;4824510;29;20037;-84
2021/09/04 11:04:57;;;;;;;5.70;2.37;;;;;;;;;;4810206;29;20038;-84
2021/09/04 11:07:44;;;;;;;5.78;2.72;;;;;;;;;;4809912;29;20029;-84
2021/09/04 11:10:23;;;;;;;6.30;3.00;;;;;;;;;;4825028;29;20049;-84
2021/09/04 11:13:06;;;;;;;6.22;2.63;;;;;;;;;;4809572;29;20086;-84
2021/09/04 11:15:32;;;;;;;6.32;2.75;;;;;;;;;;4874551;23;20044;-85
2021/09/04 11:17:58;;;;;;;6.10;2.45;;;;;;;;;;4853659;29;20060;-85
2021/09/04 11:20:23;;;;;;;9.45;2.90;;;;;;;;;;4846539;29;20486;-85
2021/09/04 11:22:48;;;;;;;4.72;2.60;;;;;;;;;;4846428;29;20037;-84
2021/09/04 11:25:14;;;;;;;4.93;2.50;;;;;;;;;;4845905;29;20025;-84
2021/09/04 11:27:43;;;;;;;7.03;2.87;;;;;;;;;;4845847;29;20116;-85
2021/09/04 11:30:09;;;;;;;4.82;2.42;;;;;;;;;;4831343;29;20104;-84
2021/09/04 11:32:35;;;;;;;8.82;2.60;;;;;;;;;;4845822;29;20455;-85
2021/09/04 11:35:01;;;;;;;12.48;3.42;;;;;;;;;;4846407;29;20497;-84
2021/09/04 11:37:33;;;;;;;;;;;;;;;;;;4845884;29;20187;-84
2021/09/04 11:40:10;;;;;;;9.43;2.65;;;;;;;;;;4861121;29;20007;-85
2021/09/04 11:42:38;;;;;;;5.10;2.60;;;;;;;;;;4876271;29;20120;-85
2021/09/04 11:45:06;;;;;;;8.52;2.90;;;;;;;;;;4845966;29;20025;-84
2021/09/04 11:47:31;;;;;;;5.70;2.45;;;;;;;;;;4845704;29;20032;-85
2021/09/04 11:49:58;;;;;;;10.68;3.08;;;;;;;;;;4845682;29;20029;-85
2021/09/04 11:52:24;;;;;;;5.78;2.80;;;;;;;;;;4845205;29;20025;-85
2021/09/04 11:54:50;;;;;;;6.35;2.70;;;;;;;;;;4861071;29;20033;-85
2021/09/04 11:57:22;;;;;;;6.50;2.70;;;;;;;;;;4845468;29;20054;-85
2021/09/04 12:00:01;;;;;;;4.93;2.80;;;;;;;;;;4861202;29;20032;-85
2021/09/04 12:02:26;;;;;;;5.80;2.60;;;;;;;;;;4845203;29;20036;-85
2021/09/04 12:04:52;;;;;;;5.32;2.70;;;;;;;;;;4845484;29;20037;-85
2021/09/04 12:07:17;;;;;;;5.10;2.53;;;;;;;;;;4845347;29;20037;-84
2021/09/04 12:09:43;;;;;;;5.13;2.73;;;;;;;;;;4845212;29;20031;-85
2021/09/04 12:12:08;;;;;;;5.53;2.87;;;;;;;;;;4844812;29;20119;-85
2021/09/04 12:14:34;;;;;;;6.57;2.90;;;;;;;;;;4845170;29;20033;-85
2021/09/04 12:17:00;;;;;;;6.60;2.67;;;;;;;;;;4845580;29;20063;-84
2021/09/04 12:19:26;;;;;;;4.53;2.40;;;;;;;;;;4845086;29;20056;-84
2021/09/04 12:21:51;;;;;;;4.18;2.38;;;;;;;;;;4845323;29;20427;-84
2021/09/04 12:24:17;;;;;;;6.25;2.72;;;;;;;;;;4845624;29;20029;-84
2021/09/04 12:26:51;;;;;;;7.67;2.77;;;;;;;;;;4844878;29;20112;-84
2021/09/04 12:29:17;;;;;;;5.93;2.50;;;;;;;;;;4844745;29;20021;-84
2021/09/04 12:31:43;;;;;;;4.77;2.47;;;;;;;;;;4860209;29;20036;-84
2021/09/04 12:34:19;;;;;;;4.75;2.40;;;;;;;;;;4847646;29;20037;-84
2021/09/04 12:36:44;;;;;;;6.50;2.17;;;;;;;;;;4864433;29;20040;-85
2021/09/04 12:39:11;;;;;;;4.90;2.60;;;;;;;;;;4848817;29;20029;-85
2021/09/04 12:41:36;;;;;;;5.20;2.72;;;;;;;;;;4848927;29;20029;-85
2021/09/04 12:44:06;;;;;;;5.20;2.53;;;;;;;;;;4849174;29;20401;-84
2021/09/04 12:46:49;;;;;;;6.60;2.70;;;;;;;;;;4848543;29;20018;-84
2021/09/04 12:49:47;;;;;;;5.15;2.80;;;;;;;;;;4848982;29;20077;-85
2021/09/04 12:52:23;;;;;;;6.72;2.33;;;;;;;;;;4847759;29;20128;-84
2021/09/04 12:54:51;;;;;;;4.55;2.50;;;;;;;;;;4848471;29;20401;-84
2021/09/04 12:57:23;;;;;;;4.45;2.45;;;;;;;;;;4879816;29;20032;-84
2021/09/04 13:00:02;;;;;;;7.40;2.42;;;;;;;;;;4864139;29;20021;-84
2021/09/04 13:02:30;;;;;;;3.88;2.10;;;;;;;;;;4848734;29;20056;-84
2021/09/04 13:04:56;;;;;;;5.32;2.80;;;;;;;;;;4848440;29;20482;-85
2021/09/04 13:07:22;;;;;;;4.28;2.60;;;;;;;;;;4848425;29;20125;-85
2021/09/04 13:09:47;;;;;;;4.95;2.58;;;;;;;;;;4863813;29;20472;-85
2021/09/04 13:12:13;;;;;;;6.23;2.70;;;;;;;;;;4847654;29;20029;-84
2021/09/04 13:14:39;;;;;;;6.15;2.47;;;;;;;;;;4848085;29;20045;-84
2021/09/04 13:17:05;;;;;;;;;;;;;;;;;;4847618;29;20029;-84
2021/09/04 13:19:30;;;;;;;4.30;2.38;;;;;;;;;;4862126;29;19911;-84
2021/09/04 13:21:57;;;;;;;5.63;2.87;;;;;;;;;;4845766;29;20025;-84
2021/09/04 13:24:22;;;;;;;5.63;2.80;;;;;;;;;;4847609;29;20400;-84
2021/09/04 13:26:48;;;;;;;6.40;2.77;;;;;;;;;;4831397;29;20482;-84
2021/09/04 13:29:13;;;;;;;5.47;2.70;;;;;;;;;;4847340;29;20052;-84
2021/09/04 13:31:43;;;;;;;7.40;3.00;;;;;;;;;;4847043;29;20025;-84
2021/09/04 13:34:10;;;;;;;5.63;2.60;;;;;;;;;;4848830;29;20112;-84
2021/09/04 13:36:36;;;;;;;4.75;2.65;;;;;;;;;;4847194;29;20052;-84
2021/09/04 13:39:01;;;;;;;4.53;2.50;;;;;;;;;;4847459;29;20124;-84
2021/09/04 13:41:27;;;;;;;4.77;2.63;;;;;;;;;;4847374;29;20033;-84
2021/09/04 13:43:52;;;;;;;6.63;3.00;;;;;;;;;;4847009;29;20192;-84
2021/09/04 13:46:17;;;;;;;4.63;2.70;;;;;;;;;;4847386;29;20092;-84
2021/09/04 13:48:43;;;;;;;6.43;2.70;;;;;;;;;;4847097;29;20041;-84
2021/09/04 13:51:08;;;;;;;4.40;2.40;;;;;;;;;;4846554;29;20718;-84
2021/09/04 13:53:33;;;;;;;4.43;2.43;;;;;;;;;;4847312;29;20080;-85
2021/09/04 13:55:59;;;;;;;4.03;2.20;;;;;;;;;;4847089;29;20187;-85
2021/09/04 13:58:25;;;;;;;5.15;2.53;;;;;;;;;;4847203;29;20446;-84
2021/09/04 14:00:50;;;;;;;4.50;2.23;;;;;;;;;;4847099;29;20043;-84
2021/09/04 14:03:15;;;;;;;4.27;2.17;;;;;;;;;;4846507;29;20056;-84
2021/09/04 14:05:41;;;;;;;4.43;2.23;;;;;;;;;;4846689;29;20119;-84
2021/09/04 14:08:06;;;;;;;5.33;2.50;;;;;;;;;;4847607;29;20029;-84
2021/09/04 14:10:32;;;;;;;4.77;2.40;;;;;;;;;;4846963;29;20051;-84
2021/09/04 14:12:57;;;;;;;6.50;2.80;;;;;;;;;;4846393;29;20053;-84
2021/09/04 14:15:22;;;;;;;7.40;2.57;;;;;;;;;;4846695;29;20072;-84
2021/09/04 14:17:48;;;;;;;4.57;2.50;;;;;;;;;;4846830;29;20127;-85
2021/09/04 14:20:13;;;;;;;6.73;2.63;;;;;;;;;;4846586;29;20549;-83
2021/09/04 14:22:38;;;;;;;4.57;2.57;;;;;;;;;;4846144;29;20035;-85
2021/09/04 14:25:05;;;;;;;4.85;2.67;;;;;;;;;;4846276;29;20702;-84
2021/09/04 14:27:31;;;;;;;7.07;2.70;;;;;;;;;;4846503;29;20225;-84
2021/09/04 14:29:56;;;;;;;4.90;2.60;;;;;;;;;;4846517;29;20124;-85
2021/09/04 14:32:22;;;;;;;5.23;3.00;;;;;;;;;;4846287;29;20020;-84
2021/09/04 14:35:04;;;;;;;5.47;2.60;;;;;;;;;;4846505;29;20278;-83
2021/09/04 14:37:30;;;;;;;5.28;2.72;;;;;;;;;;4862042;29;20048;-85
2021/09/04 14:39:56;;;;;;;6.80;2.90;;;;;;;;;;4846527;29;20029;-84
2021/09/04 14:42:21;;;;;;;4.67;2.33;;;;;;;;;;4846134;29;20021;-84
2021/09/04 14:44:47;;;;;;;4.80;2.53;;;;;;;;;;4846914;29;20553;-84
2021/09/04 14:47:13;;;;;;;;;;;;;;;;;;4846192;29;20067;-85
2021/09/04 14:49:38;;;;;;;5.40;2.90;;;;;;;;;;4861650;29;19947;-85
2021/09/04 14:52:03;;;;;;;8.13;3.07;;;;;;;;;;4845946;29;20076;-85
2021/09/04 14:54:29;;;;;;;4.27;2.60;;;;;;;;;;4846740;29;20050;-84
2021/09/04 14:56:54;;;;;;;4.90;2.57;;;;;;;;;;4845558;29;20102;-85
2021/09/04 14:59:19;;;;;;;4.80;2.60;;;;;;;;;;4846486;29;20116;-85
2021/09/04 15:01:45;;;;;;;6.10;2.73;;;;;;;;;;4846381;29;20025;-85
2021/09/04 15:04:10;;;;;;;5.70;2.97;;;;;;;;;;4846684;29;20124;-84
2021/09/04 15:06:35;;;;;;;6.53;2.67;;;;;;;;;;4846332;29;20051;-84
2021/09/04 15:09:01;;;;;;;5.73;2.63;;;;;;;;;;4846424;29;20119;-85
2021/09/04 15:11:26;;;;;;;5.70;2.60;;;;;;;;;;4845735;29;20112;-84
2021/09/04 15:13:51;;;;;;;4.73;2.70;;;;;;;;;;4845893;29;20401;-85
2021/09/04 15:16:17;;;;;;;4.93;2.57;;;;;;;;;;4845971;29;20036;-85
2021/09/04 15:18:43;;;;;;;4.82;2.28;;;;;;;;;;4846355;29;20112;-84
2021/09/04 15:21:08;;;;;;;4.85;2.38;;;;;;;;;;4845884;29;20035;-84
2021/09/04 15:23:56;;;;;;;5.73;2.50;;;;;;;;;;4846155;29;20029;-85
2021/09/04 15:26:22;;;;;;;5.00;2.33;;;;;;;;;;4878000;29;20029;-84
2021/09/04 15:28:47;;;;;;;5.47;2.23;;;;;;;;;;4846165;29;20120;-85
2021/09/04 15:31:12;;;;;;;6.53;2.17;;;;;;;;;;4845482;29;20515;-85
2021/09/04 15:33:38;;;;;;;5.77;2.47;;;;;;;;;;4845848;29;20063;-85
2021/09/04 15:36:06;;;;;;;4.83;2.63;;;;;;;;;;4845762;29;20478;-85
2021/09/04 15:38:32;;;;;;;5.20;2.55;;;;;;;;;;4846250;29;20120;-85
2021/09/04 15:40:57;;;;;;;6.18;2.47;;;;;;;;;;4845798;29;20485;-85
2021/09/04 15:43:23;;;;;;;4.07;2.30;;;;;;;;;;4845382;29;20052;-84
2021/09/04 15:45:48;;;;;;;5.67;2.57;;;;;;;;;;4845631;29;20033;-84
2021/09/04 15:48:14;;;;;;;4.07;2.37;;;;;;;;;;4845840;29;20119;-84
2021/09/04 15:50:39;;;;;;;4.68;2.47;;;;;;;;;;4845914;29;20114;-85
2021/09/04 15:53:06;;;;;;;5.07;2.28;;;;;;;;;;4830156;29;20043;-85
2021/09/04 15:55:31;;;;;;;4.53;2.28;;;;;;;;;;4846064;29;20031;-84
2021/09/04 15:57:57;;;;;;;4.28;2.13;;;;;;;;;;4845602;29;20401;-84
2021/09/04 16:00:22;;;;;;;4.20;2.30;;;;;;;;;;4845210;29;20489;-85
2021/09/04 16:02:48;;;;;;;5.87;2.30;;;;;;;;;;4844951;29;20028;-84
2021/09/04 16:05:13;;;;;;;4.27;1.87;;;;;;;;;;4845333;29;20037;-85
2021/09/04 16:07:38;;;;;;;4.83;2.27;;;;;;;;;;4845580;29;20020;-85
2021/09/04 16:10:04;;;;;;;4.13;2.20;;;;;;;;;;4844980;29;20442;-85
2021/09/04 16:12:29;;;;;;;3.83;2.25;;;;;;;;;;4845357;29;20028;-84
2021/09/04 16:14:55;;;;;;;4.00;2.20;;;;;;;;;;4845224;29;20037;-83
2021/09/04 16:17:22;;;;;;;3.70;2.10;;;;;;;;;;4845819;29;20029;-84
2021/09/04 16:19:47;;;;;;;6.00;2.35;;;;;;;;;;4845852;29;20093;-84
2021/09/04 16:22:13;;;;;;;3.92;2.35;;;;;;;;;;4844607;29;20033;-84
2021/09/04 16:24:38;;;;;;;4.70;2.20;;;;;;;;;;4845094;29;20033;-85
2021/09/04 16:27:03;;;;;;;3.80;2.30;;;;;;;;;;4845095;29;20047;-85
2021/09/04 16:29:29;;;;;;;4.33;2.40;;;;;;;;;;4845117;29;20032;-85
2021/09/04 16:31:54;;;;;;;5.20;2.67;;;;;;;;;;4845110;29;20131;-84
2021/09/04 16:34:19;;;;;;;4.47;2.30;;;;;;;;;;4845523;29;20037;-84
2021/09/04 16:36:45;;;;;;;7.20;2.17;;;;;;;;;;4845135;29;20124;-85
2021/09/04 16:39:10;;;;;;;6.40;2.33;;;;;;;;;;4845530;29;20079;-84
2021/09/04 16:41:36;;;;;;;4.43;2.27;;;;;;;;;;4844624;29;20029;-85
2021/09/04 16:44:01;;;;;;;6.27;2.23;;;;;;;;;;4845136;29;20405;-84
2021/09/04 16:46:26;;;;;;;6.30;2.40;;;;;;;;;;4845065;29;20401;-84
2021/09/04 16:48:52;;;;;;;4.17;2.30;;;;;;;;;;4845135;29;20516;-84
2021/09/04 16:51:17;;;;;;;5.30;2.80;;;;;;;;;;4844728;29;20068;-84
2021/09/04 16:53:42;;;;;;;5.10;2.47;;;;;;;;;;4845112;29;20033;-85
2021/09/04 16:56:08;;;;;;;4.53;2.40;;;;;;;;;;4844995;29;20509;-84
2021/09/04 16:58:33;;;;;;;5.00;2.27;;;;;;;;;;4845343;29;20045;-85
2021/09/04 17:00:59;;;;;;;8.47;2.50;;;;;;;;;;4844768;29;20516;-85
2021/09/04 17:03:24;;;;;;;5.93;2.40;;;;;;;;;;4845573;29;20045;-85
2021/09/04 17:05:49;;;;;;;4.70;2.50;;;;;;;;;;4845128;29;20229;-85
2021/09/04 17:08:15;;;;;;;4.63;2.43;;;;;;;;;;4844922;29;20084;-85
2021/09/04 17:10:40;;;;;;;5.00;2.30;;;;;;;;;;4845262;29;20114;-85
2021/09/04 17:13:05;;;;;;;3.67;2.27;;;;;;;;;;4844917;29;20538;-84
2021/09/04 17:15:31;;;;;;;5.23;2.83;;;;;;;;;;4983115;23;20045;-84
2021/09/04 17:17:56;;;;;;;5.00;2.80;;;;;;;;;;4833884;29;20032;-83
2021/09/04 17:20:22;;;;;;;5.37;2.70;;;;;;;;;;4829267;29;20025;-84
2021/09/04 17:22:47;;;;;;;4.53;2.30;;;;;;;;;;4814276;29;20090;-83
2021/09/04 17:25:12;;;;;;;5.63;2.90;;;;;;;;;;4829843;29;20034;-83
2021/09/04 17:27:38;;;;;;;4.97;2.73;;;;;;;;;;4829501;29;20406;-83
2021/09/04 17:30:04;;;;;;;6.00;2.87;;;;;;;;;;4830063;29;20037;-83
2021/09/04 17:32:30;;;;;;;;;;;;;;;;;;4829876;29;20033;-84
2021/09/04 17:34:55;;;;;;;5.75;2.63;;;;;;;;;;4845230;29;20448;-83
2021/09/04 17:37:21;;;;;;;6.00;2.60;;;;;;;;;;4829395;29;20025;-83
2021/09/04 17:39:49;;;;;;;6.28;2.85;;;;;;;;;;4830271;29;20029;-84
2021/09/04 17:42:16;;;;;;;7.55;3.00;;;;;;;;;;4831127;29;20125;-84
2021/09/04 17:44:41;;;;;;;;;;;;;;;;;;4830886;29;20028;-84
2021/09/04 17:47:06;;;;;;;10.85;2.83;;;;;;;;;;4830397;29;19911;-84
2021/09/04 17:49:32;;;;;;;8.80;2.97;;;;;;;;;;4830684;29;20033;-84
2021/09/04 17:52:00;;;;;;;6.47;3.17;;;;;;;;;;4830333;29;20554;-83
2021/09/04 17:54:25;;;;;;;5.28;2.92;;;;;;;;;;4830753;29;20483;-84
2021/09/04 17:56:50;;;;;;;6.60;2.97;;;;;;;;;;4830263;29;20036;-84
2021/09/04 17:59:16;;;;;;;5.73;2.97;;;;;;;;;;4830253;29;20124;-83
2021/09/04 18:01:41;;;;;;;9.50;3.20;;;;;;;;;;4830084;29;20104;-84
2021/09/04 18:04:07;;;;;;;8.10;3.20;;;;;;;;;;4829891;29;20379;-83
2021/09/04 18:06:32;;;;;;;6.77;3.10;;;;;;;;;;4814758;29;20032;-84
2021/09/04 18:08:57;;;;;;;7.30;2.90;;;;;;;;;;4829850;29;20371;-83
2021/09/04 18:11:22;;;;;;;7.87;2.97;;;;;;;;;;4829629;29;20192;-84
2021/09/04 18:13:48;;;;;;;7.03;2.80;;;;;;;;;;4829339;29;20124;-84
2021/09/04 18:16:13;;;;;;;7.90;3.03;;;;;;;;;;4814677;29;20036;-83
2021/09/04 18:18:39;;;;;;;6.23;3.47;;;;;;;;;;4829944;29;20627;-83
2021/09/04 18:21:04;;;;;;;6.87;2.97;;;;;;;;;;4829973;29;20105;-84
2021/09/04 18:23:29;;;;;;;7.27;3.17;;;;;;;;;;4814548;29;20594;-83
2021/09/04 18:25:56;;;;;;;6.93;3.20;;;;;;;;;;4829578;29;20021;-83
2021/09/04 18:28:22;;;;;;;5.45;2.75;;;;;;;;;;4830106;29;20044;-83
2021/09/04 18:30:47;;;;;;;6.07;3.20;;;;;;;;;;4828521;29;20033;-83
2021/09/04 18:33:13;;;;;;;8.47;2.87;;;;;;;;;;4829147;29;20530;-83
2021/09/04 18:35:38;;;;;;;7.57;3.20;;;;;;;;;;4829415;29;20101;-83
2021/09/04 18:38:03;;;;;;;5.53;3.10;;;;;;;;;;4829641;29;20101;-83
2021/09/04 18:40:29;;;;;;;5.40;2.67;;;;;;;;;;4844171;29;20033;-83
2021/09/04 18:42:54;;;;;;;6.00;3.10;;;;;;;;;;4829152;29;20038;-83
2021/09/04 18:45:19;;;;;;;5.37;2.90;;;;;;;;;;4828720;29;20127;-83
2021/09/04 18:47:45;;;;;;;6.30;3.10;;;;;;;;;;4829011;29;20036;-83
2021/09/04 18:50:10;;;;;;;7.57;3.50;;;;;;;;;;4828853;29;20037;-83
2021/09/04 18:52:35;;;;;;;5.87;3.07;;;;;;;;;;4828499;29;20033;-83
2021/09/04 18:55:01;;;;;;;7.17;3.37;;;;;;;;;;4828904;29;20486;-83
2021/09/04 18:57:26;;;;;;;6.03;3.13;;;;;;;;;;4844202;29;20037;-83
2021/09/04 18:59:52;;;;;;;6.13;3.10;;;;;;;;;;4843926;29;20025;-83
2021/09/04 19:02:17;;;;;;;7.47;3.30;;;;;;;;;;4813927;29;20131;-83
2021/09/04 19:04:42;;;;;;;6.67;3.10;;;;;;;;;;4828365;29;20033;-83
2021/09/04 19:07:08;;;;;;;6.27;3.37;;;;;;;;;;4813599;29;20120;-83
2021/09/04 19:09:33;;;;;;;7.03;3.10;;;;;;;;;;4828635;29;20573;-83
2021/09/04 19:11:58;;;;;;;7.13;3.53;;;;;;;;;;4828451;29;20040;-83
2021/09/04 19:14:24;;;;;;;10.63;3.50;;;;;;;;;;4828501;29;20018;-82
2021/09/04 19:16:50;;;;;;;6.13;3.00;;;;;;;;;;4828362;29;20039;-83
2021/09/04 19:19:15;;;;;;;6.25;2.85;;;;;;;;;;4844119;29;20029;-83
2021/09/04 19:21:41;;;;;;;9.27;3.43;;;;;;;;;;4828326;29;20038;-84
2021/09/04 19:24:07;;;;;;;7.97;3.30;;;;;;;;;;4813198;29;20108;-83
2021/09/04 19:26:32;;;;;;;7.68;3.70;;;;;;;;;;4828457;29;20125;-83
2021/09/04 19:28:58;;;;;;;6.33;3.33;;;;;;;;;;4828606;29;20461;-83
2021/09/04 19:31:23;;;;;;;6.97;3.30;;;;;;;;;;4827928;29;20076;-83
2021/09/04 19:33:48;;;;;;;6.30;3.00;;;;;;;;;;4828377;29;20036;-83
2021/09/04 19:36:15;;;;;;;6.37;2.70;;;;;;;;;;4828040;29;20469;-83
2021/09/04 19:38:40;;;;;;;6.47;3.10;;;;;;;;;;4828570;29;20550;-83
2021/09/04 19:41:05;;;;;;;9.83;4.07;;;;;;;;;;4827949;29;20041;-83
2021/09/04 19:43:31;;;;;;;6.63;3.23;;;;;;;;;;4827319;29;20121;-83